Time;durP1;ratioP1;P1;durP2;ratioP2;P2;SDS_P1;SDS_P2;PMS_P1;PMS_P2;Temp;Humidity;BMP_temperature;BMP_pressure;BME280_temperature;BME280_humidity;BME280_pressure;Samples;Min_cycle;Max_cycle;Signal;HPM_P1;HPM_P2
2022/08/02 00:01:23;;;;;;;1999.90;999.90;;;15.60;99.90;;;;;;5035644;28;20043;-78
2022/08/02 00:03:49;;;;;;;1999.90;999.90;;;15.60;99.90;;;;;;5035685;28;20535;-85
2022/08/02 00:06:14;;;;;;;1999.90;999.90;;;15.50;99.90;;;;;;5033064;28;20121;-78
2022/08/02 00:08:40;;;;;;;1999.90;999.90;;;15.50;99.90;;;;;;5030631;28;20025;-78
2022/08/02 00:11:06;;;;;;;1999.90;999.90;;;15.50;99.90;;;;;;5028171;28;20059;-76
2022/08/02 00:13:32;;;;;;;1999.90;999.90;;;15.50;99.90;;;;;;5044498;28;20537;-78
2022/08/02 00:15:58;;;;;;;1999.90;999.90;;;15.50;99.90;;;;;;5043865;28;20567;-78
2022/08/02 00:18:23;;;;;;;1999.90;999.90;;;15.50;99.90;;;;;;5042869;28;20117;-78
2022/08/02 00:20:49;;;;;;;1999.90;999.90;;;15.40;99.90;;;;;;5040603;28;20036;-78
2022/08/02 00:23:15;;;;;;;1999.90;999.90;;;15.40;99.90;;;;;;5039923;28;20048;-77
2022/08/02 00:25:40;;;;;;;1999.90;999.90;;;15.40;99.90;;;;;;5037103;28;20084;-77
2022/08/02 00:28:06;;;;;;;1999.90;999.90;;;15.40;99.90;;;;;;5034743;28;20125;-80
2022/08/02 00:30:32;;;;;;;1999.90;999.90;;;15.30;99.90;;;;;;5033588;28;20033;-77
2022/08/02 00:32:58;;;;;;;1999.90;999.90;;;15.30;99.90;;;;;;5029861;28;20555;-77
2022/08/02 00:35:23;;;;;;;1999.90;999.90;;;15.30;99.90;;;;;;5037215;28;20049;-77
2022/08/02 00:37:49;;;;;;;1999.90;999.90;;;15.30;99.90;;;;;;5025785;28;20033;-77
2022/08/02 00:40:15;;;;;;;1999.90;999.90;;;15.30;99.90;;;;;;5045642;28;20578;-79
2022/08/02 00:42:40;;;;;;;1999.90;999.90;;;15.20;99.90;;;;;;5024377;28;20040;-78
2022/08/02 00:45:07;;;;;;;1999.90;999.90;;;15.20;99.90;;;;;;5044424;28;20036;-77
2022/08/02 00:47:33;;;;;;;1999.90;999.90;;;15.20;99.90;;;;;;5043263;28;20032;-77
2022/08/02 00:49:58;;;;;;;1999.90;999.90;;;15.10;99.90;;;;;;5039324;28;20032;-77
2022/08/02 00:52:24;;;;;;;1999.90;999.90;;;15.20;99.90;;;;;;5033766;28;20400;-87
2022/08/02 00:54:50;;;;;;;1999.90;999.90;;;15.20;99.90;;;;;;5035429;28;20024;-78
2022/08/02 00:57:15;;;;;;;1999.90;999.90;;;15.10;99.90;;;;;;5036294;28;20029;-78
2022/08/02 00:59:41;;;;;;;1999.90;999.90;;;15.10;99.90;;;;;;5036712;28;20040;-77
2022/08/02 01:02:07;;;;;;;1999.90;999.90;;;15.10;99.90;;;;;;5013919;28;20045;-77
2022/08/02 01:04:33;;;;;;;1999.90;999.90;;;15.10;99.90;;;;;;5025583;28;20029;-77
2022/08/02 01:07:02;;;;;;;1999.90;999.90;;;15.00;99.90;;;;;;5031329;28;20104;-78
2022/08/02 01:09:28;;;;;;;1999.90;999.90;;;15.00;99.90;;;;;;5036416;28;20187;-77
2022/08/02 01:11:54;;;;;;;1999.90;999.90;;;15.00;99.90;;;;;;5045167;28;20455;-77
2022/08/02 01:14:23;;;;;;;1999.90;999.90;;;15.00;99.90;;;;;;5041168;28;20543;-78
2022/08/02 01:16:54;;;;;;;1999.90;999.90;;;14.90;99.90;;;;;;5041898;28;20037;-79
2022/08/02 01:19:41;;;;;;;1999.90;999.90;;;14.90;99.90;;;;;;5036147;28;20013;-77
2022/08/02 01:22:19;;;;;;;1999.90;999.90;;;14.90;99.90;;;;;;5037480;28;20032;-78
2022/08/02 01:25:07;;;;;;;1999.90;999.90;;;14.90;99.90;;;;;;5032475;28;20029;-78
2022/08/02 01:28:11;;;;;;;1999.90;999.90;;;14.90;99.90;;;;;;5020492;28;20033;-77
2022/08/02 01:30:40;;;;;;;1999.90;999.90;;;14.90;99.90;;;;;;5031665;28;20125;-77
2022/08/02 01:33:07;;;;;;;1999.90;999.90;;;14.80;99.90;;;;;;5033129;28;20168;-77
2022/08/02 01:35:44;;;;;;;1999.90;999.90;;;14.80;99.90;;;;;;5032964;28;20493;-77
2022/08/02 01:38:31;;;;;;;1999.90;999.90;;;14.80;99.90;;;;;;5032037;28;20041;-78
2022/08/02 01:41:00;;;;;;;1999.90;999.90;;;14.80;99.90;;;;;;5026189;28;20458;-77
2022/08/02 01:43:28;;;;;;;1999.90;999.90;;;14.80;99.90;;;;;;5037552;28;20029;-78
2022/08/02 01:45:55;;;;;;;1999.90;999.90;;;14.80;99.90;;;;;;5038695;28;20101;-77
2022/08/02 01:48:23;;;;;;;1999.90;999.90;;;14.80;99.90;;;;;;5037419;28;20036;-77
2022/08/02 01:50:50;;;;;;;1999.90;999.90;;;14.70;99.90;;;;;;5035924;28;20079;-77
2022/08/02 01:53:19;;;;;;;1999.90;999.90;;;14.70;99.90;;;;;;5038150;28;20538;-76
2022/08/02 01:55:53;;;;;;;1999.90;999.90;;;14.70;99.90;;;;;;5031481;28;20033;-78
2022/08/02 01:58:21;;;;;;;1999.90;999.90;;;14.70;99.90;;;;;;5037786;28;20029;-78
2022/08/02 02:00:48;;;;;;;1999.90;999.90;;;14.60;99.90;;;;;;5030878;28;20120;-76
2022/08/02 02:03:18;;;;;;;1999.90;999.90;;;14.60;99.90;;;;;;5031154;28;20057;-77
2022/08/02 02:05:46;;;;;;;;;;;14.60;99.90;;;;;;5032271;28;20018;-77
2022/08/02 02:08:14;;;;;;;1999.90;999.90;;;14.60;99.90;;;;;;5030860;28;19912;-77
2022/08/02 02:10:43;;;;;;;1999.90;999.90;;;14.60;99.90;;;;;;5046256;28;20511;-77
2022/08/02 02:13:13;;;;;;;1999.90;999.90;;;14.60;99.90;;;;;;5031861;28;20052;-77
2022/08/02 02:15:43;;;;;;;1999.90;999.90;;;14.60;99.90;;;;;;5041894;28;20040;-85
2022/08/02 02:18:11;;;;;;;1999.90;999.90;;;14.50;99.90;;;;;;5043392;28;20033;-77
2022/08/02 02:20:37;;;;;;;1999.90;999.90;;;14.50;99.90;;;;;;5034658;28;20029;-77
2022/08/02 02:23:03;;;;;;;1999.90;999.90;;;14.50;99.90;;;;;;5041794;28;20175;-77
2022/08/02 02:25:29;;;;;;;1999.90;999.90;;;14.50;99.90;;;;;;5042178;28;20801;-79
2022/08/02 02:28:12;;;;;;;1999.90;999.90;;;14.40;99.90;;;;;;5035740;28;20025;-78
2022/08/02 02:30:41;;;;;;;1999.90;999.90;;;14.50;99.90;;;;;;5022941;28;20065;-77
2022/08/02 02:33:08;;;;;;;1999.90;999.90;;;14.50;99.90;;;;;;5033362;28;20025;-78
2022/08/02 02:35:36;;;;;;;1999.90;999.90;;;14.40;99.90;;;;;;5027970;28;20025;-80
2022/08/02 02:38:04;;;;;;;1999.90;999.90;;;14.40;99.90;;;;;;5038387;28;20029;-78
2022/08/02 02:40:31;;;;;;;1999.90;999.90;;;14.40;99.90;;;;;;5045670;28;20025;-78
2022/08/02 02:43:00;;;;;;;1999.90;999.90;;;14.40;99.90;;;;;;5041895;28;20090;-77
2022/08/02 02:45:27;;;;;;;1999.90;999.90;;;14.40;99.90;;;;;;5039627;28;20029;-80
2022/08/02 02:47:54;;;;;;;1999.90;999.90;;;14.30;99.90;;;;;;5036346;28;20025;-77
2022/08/02 02:50:21;;;;;;;1999.90;999.90;;;14.20;99.90;;;;;;5041688;28;20037;-78
2022/08/02 02:52:47;;;;;;;1999.90;999.90;;;14.30;99.90;;;;;;5040232;28;20036;-77
2022/08/02 02:55:14;;;;;;;1999.90;999.90;;;14.20;99.90;;;;;;5035159;28;20116;-77
2022/08/02 02:57:40;;;;;;;1999.90;999.90;;;14.10;99.90;;;;;;5032880;28;20033;-78
2022/08/02 03:00:09;;;;;;;1999.90;999.90;;;14.10;99.90;;;;;;5036728;28;20040;-78
2022/08/02 03:02:38;;;;;;;1999.90;999.90;;;14.10;99.90;;;;;;5035555;28;20049;-78
2022/08/02 03:05:05;;;;;;;1999.90;999.90;;;14.20;99.90;;;;;;5031544;28;20064;-78
2022/08/02 03:07:34;;;;;;;1999.90;999.90;;;14.20;99.90;;;;;;5034657;28;20044;-83
2022/08/02 03:10:01;;;;;;;1999.90;999.90;;;14.10;99.90;;;;;;5049490;28;20032;-77
2022/08/02 03:12:27;;;;;;;1999.90;999.90;;;14.10;99.90;;;;;;5038943;28;20078;-78
2022/08/02 03:14:53;;;;;;;1999.90;999.90;;;14.10;99.90;;;;;;5033178;28;20056;-77
2022/08/02 03:17:19;;;;;;;1999.90;999.90;;;14.10;99.90;;;;;;5035155;28;20061;-77
2022/08/02 03:19:45;;;;;;;1999.90;999.90;;;14.00;99.90;;;;;;5040235;28;20029;-81
2022/08/02 03:22:11;;;;;;;1999.90;999.90;;;14.00;99.90;;;;;;5040610;28;20044;-78
2022/08/02 03:24:37;;;;;;;1999.90;999.90;;;14.00;99.90;;;;;;5040484;28;20025;-77
2022/08/02 03:27:03;;;;;;;1999.90;999.90;;;14.10;99.90;;;;;;5036859;28;20457;-77
2022/08/02 03:29:29;;;;;;;1999.90;999.90;;;14.10;99.90;;;;;;5034276;28;20041;-78
2022/08/02 03:31:56;;;;;;;1999.90;999.90;;;14.00;99.90;;;;;;5035767;28;20045;-78
2022/08/02 03:34:22;;;;;;;1999.90;999.90;;;14.00;99.90;;;;;;5031418;28;20040;-77
2022/08/02 03:36:53;;;;;;;1999.90;999.90;;;13.90;99.90;;;;;;5026926;28;20048;-77
2022/08/02 03:39:20;;;;;;;1999.90;999.90;;;13.90;99.90;;;;;;5045437;28;20029;-77
2022/08/02 03:41:48;;;;;;;1999.90;999.90;;;13.90;99.90;;;;;;5045604;28;20171;-87
2022/08/02 03:44:15;;;;;;;1999.90;999.90;;;13.80;99.90;;;;;;5038673;28;20025;-78
2022/08/02 03:46:42;;;;;;;1999.90;999.90;;;13.80;99.90;;;;;;5042360;28;20750;-77
2022/08/02 03:49:09;;;;;;;1999.90;999.90;;;13.80;99.90;;;;;;5040531;28;20071;-78
2022/08/02 03:51:35;;;;;;;1999.90;999.90;;;13.70;99.90;;;;;;5039911;28;20029;-78
2022/08/02 03:54:02;;;;;;;1999.90;999.90;;;13.70;99.90;;;;;;5036419;28;20115;-78
2022/08/02 03:56:28;;;;;;;1999.90;999.90;;;13.60;99.90;;;;;;5035724;28;20679;-78
2022/08/02 03:59:12;;;;;;;1999.90;999.90;;;13.70;99.90;;;;;;5032443;28;20040;-77
2022/08/02 04:01:38;;;;;;;1999.90;999.90;;;13.70;99.90;;;;;;5035084;28;20567;-84
2022/08/02 04:04:05;;;;;;;1999.90;999.90;;;13.70;99.90;;;;;;5031725;28;20037;-78
2022/08/02 04:06:31;;;;;;;1999.90;999.90;;;13.60;99.90;;;;;;5025447;28;20520;-77
2022/08/02 04:08:56;;;;;;;1999.90;999.90;;;13.60;99.90;;;;;;5032430;28;20033;-77
2022/08/02 04:11:31;;;;;;;1999.90;999.90;;;13.60;99.90;;;;;;5043125;28;20028;-78
2022/08/02 04:14:04;;;;;;;1999.90;999.90;;;13.70;99.90;;;;;;5040708;28;20021;-78
2022/08/02 04:16:53;;;;;;;1999.90;999.90;;;13.70;99.90;;;;;;5033109;28;20030;-78
2022/08/02 04:19:33;;;;;;;1999.90;999.90;;;13.70;99.90;;;;;;5034759;28;20037;-79
2022/08/02 04:22:03;;;;;;;;;;;13.70;99.90;;;;;;5035068;28;20559;-78
2022/08/02 04:24:36;;;;;;;1999.90;999.90;;;13.70;99.90;;;;;;5038719;28;19917;-77
2022/08/02 04:27:03;;;;;;;1999.90;999.90;;;13.80;99.90;;;;;;5029135;28;20045;-80
2022/08/02 04:29:30;;;;;;;1999.90;999.90;;;13.80;99.90;;;;;;5033936;28;20140;-77
2022/08/02 04:31:57;;;;;;;1999.90;999.90;;;13.90;99.90;;;;;;5028846;28;20040;-78
2022/08/02 04:34:22;;;;;;;1999.90;999.90;;;14.00;99.90;;;;;;5026994;28;20082;-80
2022/08/02 04:36:49;;;;;;;1999.90;999.90;;;14.00;99.90;;;;;;5036309;28;20109;-79
2022/08/02 04:39:15;;;;;;;1999.90;999.90;;;14.00;99.90;;;;;;5041577;28;20044;-83
2022/08/02 04:41:42;;;;;;;1999.90;999.90;;;14.10;99.90;;;;;;5025568;28;20022;-79
2022/08/02 04:44:08;;;;;;;1999.90;999.90;;;14.20;99.90;;;;;;5034908;28;20033;-78
2022/08/02 04:46:35;;;;;;;1999.90;999.90;;;14.30;99.90;;;;;;5041084;28;20039;-78
2022/08/02 04:49:00;;;;;;;1999.90;999.90;;;14.30;99.90;;;;;;5040342;28;20029;-77
2022/08/02 04:51:26;;;;;;;1999.90;999.90;;;14.40;99.90;;;;;;5038320;28;20083;-79
2022/08/02 04:53:52;;;;;;;1999.90;999.90;;;14.50;99.90;;;;;;5035140;28;20102;-78
2022/08/02 04:56:18;;;;;;;1999.90;999.90;;;14.60;99.90;;;;;;5031335;28;20473;-78
2022/08/02 04:58:43;;;;;;;1999.90;999.90;;;14.60;99.90;;;;;;5030718;28;20477;-78
2022/08/02 05:01:09;;;;;;;1999.90;999.90;;;14.70;99.90;;;;;;5023954;28;20558;-78
2022/08/02 05:03:35;;;;;;;1999.90;999.90;;;14.80;99.90;;;;;;5028792;28;20068;-81
2022/08/02 05:06:00;;;;;;;1999.90;999.90;;;14.90;99.90;;;;;;5024814;28;20057;-79
2022/08/02 05:08:27;;;;;;;1999.90;999.90;;;14.90;99.90;;;;;;5039631;28;20140;-78
2022/08/02 05:10:52;;;;;;;1999.90;999.90;;;15.00;99.90;;;;;;5041346;28;20025;-78
2022/08/02 05:13:18;;;;;;;1999.90;999.90;;;14.90;99.90;;;;;;5042096;28;20087;-77
2022/08/02 05:15:46;;;;;;;1999.90;999.90;;;15.10;99.90;;;;;;5037656;28;20026;-80
2022/08/02 05:18:12;;;;;;;1999.90;999.90;;;15.10;99.90;;;;;;5028036;28;20103;-79
2022/08/02 05:20:38;;;;;;;1999.90;999.90;;;15.20;99.90;;;;;;5033694;28;20037;-78
2022/08/02 05:23:03;;;;;;;1999.90;999.90;;;15.10;99.90;;;;;;5027910;28;20508;-77
2022/08/02 05:25:29;;;;;;;1999.90;999.90;;;15.20;99.90;;;;;;5027624;28;20487;-77
2022/08/02 05:27:54;;;;;;;1999.90;999.90;;;15.30;99.90;;;;;;5028384;28;20068;-82
2022/08/02 05:30:20;;;;;;;1999.90;999.90;;;15.40;99.90;;;;;;5024412;28;20403;-78
2022/08/02 05:32:49;;;;;;;1999.90;999.90;;;15.60;99.90;;;;;;5024503;28;20108;-75
2022/08/02 05:35:19;;;;;;;1999.90;999.90;;;15.50;99.90;;;;;;5019939;28;20169;-76
2022/08/02 05:37:46;;;;;;;1999.90;999.90;;;15.50;99.90;;;;;;5035388;28;20025;-77
2022/08/02 05:40:12;;;;;;;1999.90;999.90;;;15.60;99.90;;;;;;5039259;28;20412;-77
2022/08/02 05:42:37;;;;;;;1999.90;999.90;;;15.60;99.90;;;;;;5031423;28;20037;-78
2022/08/02 05:45:04;;;;;;;1999.90;999.90;;;15.80;99.90;;;;;;5022385;28;20440;-78
2022/08/02 05:47:30;;;;;;;1999.90;999.90;;;15.90;99.90;;;;;;5020685;28;20036;-79
2022/08/02 05:49:55;;;;;;;1999.90;999.90;;;16.00;99.90;;;;;;5022195;28;20029;-79
2022/08/02 05:52:25;;;;;;;1999.90;999.90;;;16.10;99.90;;;;;;5017432;28;20033;-78
2022/08/02 05:55:04;;;;;;;1999.90;999.90;;;16.30;99.90;;;;;;5008855;28;20113;-78
2022/08/02 05:57:43;;;;;;;1999.90;999.90;;;16.20;99.90;;;;;;5027971;28;20030;-76
2022/08/02 06:00:12;;;;;;;1999.90;999.90;;;16.40;99.90;;;;;;5022549;28;20279;-77
2022/08/02 06:02:47;;;;;;;1999.90;999.90;;;16.40;99.90;;;;;;5024280;28;20130;-77
2022/08/02 06:05:20;;;;;;;1999.90;999.90;;;16.40;99.90;;;;;;5022559;28;20034;-76
2022/08/02 06:07:48;;;;;;;1999.90;999.90;;;16.50;99.90;;;;;;5022071;28;20029;-78
2022/08/02 06:10:17;;;;;;;1999.90;999.90;;;16.50;99.90;;;;;;5022556;28;20041;-77
2022/08/02 06:12:43;;;;;;;1999.90;999.90;;;16.70;99.90;;;;;;5023299;28;20489;-77
2022/08/02 06:15:12;;;;;;;1999.90;999.90;;;16.60;99.90;;;;;;5023644;28;20084;-76
2022/08/02 06:17:39;;;;;;;1999.90;999.90;;;16.70;99.90;;;;;;5026642;28;20033;-81
2022/08/02 06:20:06;;;;;;;1999.90;999.90;;;16.80;99.90;;;;;;5024152;28;20034;-87
2022/08/02 06:22:34;;;;;;;1999.90;999.90;;;16.90;99.90;;;;;;5025588;28;20043;-73
2022/08/02 06:25:01;;;;;;;1999.90;999.90;;;16.90;99.90;;;;;;5028682;28;20099;-73
2022/08/02 06:27:27;;;;;;;1999.90;999.90;;;16.90;99.90;;;;;;5029238;28;20061;-73
2022/08/02 06:29:54;;;;;;;1999.90;999.90;;;16.90;99.90;;;;;;5025319;28;20025;-81
2022/08/02 06:32:20;;;;;;;1999.90;999.90;;;17.00;99.90;;;;;;5027037;28;20041;-78
2022/08/02 06:34:46;;;;;;;1999.90;999.90;;;17.10;99.90;;;;;;5028601;28;20116;-79
2022/08/02 06:37:20;;;;;;;1999.90;999.90;;;17.00;99.90;;;;;;5028190;28;20030;-82
2022/08/02 06:39:58;;;;;;;1999.90;999.90;;;17.10;99.90;;;;;;5028392;28;20030;-82
2022/08/02 06:42:42;;;;;;;1999.90;999.90;;;17.30;99.90;;;;;;5028595;28;20033;-78
2022/08/02 06:45:08;;;;;;;1999.90;999.90;;;17.50;99.90;;;;;;5027927;28;20033;-77
2022/08/02 06:47:33;;;;;;;1999.90;999.90;;;17.80;99.90;;;;;;5027153;28;20064;-79
2022/08/02 06:49:59;;;;;;;1999.90;999.90;;;17.80;99.90;;;;;;5027187;28;20112;-76
2022/08/02 06:52:27;;;;;;;1999.90;999.90;;;17.70;99.90;;;;;;5009815;28;20033;-77
2022/08/02 06:54:53;;;;;;;1999.90;999.90;;;17.50;99.90;;;;;;5027410;28;20493;-79
2022/08/02 06:57:19;;;;;;;1999.90;999.90;;;17.50;99.90;;;;;;5025883;28;20643;-78
2022/08/02 06:59:45;;;;;;;1999.90;999.90;;;17.40;99.90;;;;;;5025984;28;20037;-77
2022/08/02 07:02:10;;;;;;;1999.90;999.90;;;17.50;99.90;;;;;;5026585;28;20426;-78
2022/08/02 07:04:37;;;;;;;1999.90;999.90;;;17.60;99.90;;;;;;5025323;28;20029;-86
2022/08/02 07:07:02;;;;;;;1999.90;999.90;;;17.60;99.90;;;;;;5022260;28;20493;-80
2022/08/02 07:09:28;;;;;;;1999.90;999.90;;;17.50;99.90;;;;;;5024799;28;20033;-82
2022/08/02 07:11:54;;;;;;;1999.90;999.90;;;17.60;99.90;;;;;;5025874;28;20033;-85
2022/08/02 07:14:20;;;;;;;1999.90;999.90;;;17.60;99.90;;;;;;5009188;28;20033;-78
2022/08/02 07:16:45;;;;;;;1999.90;999.90;;;17.80;99.90;;;;;;5026888;28;20037;-78
2022/08/02 07:19:14;;;;;;;1999.90;999.90;;;17.90;99.90;;;;;;5028058;28;20033;-87
2022/08/02 07:21:40;;;;;;;1999.90;999.90;;;18.00;99.90;;;;;;5026132;28;20037;-85
2022/08/02 07:24:05;;;;;;;1999.90;999.90;;;18.00;99.90;;;;;;5026212;28;20043;-86
2022/08/02 07:26:31;;;;;;;1999.90;999.90;;;17.90;99.90;;;;;;5027497;28;20029;-86
2022/08/02 07:28:57;;;;;;;1999.90;999.90;;;18.30;99.90;;;;;;5027122;28;20041;-84
2022/08/02 07:31:23;;;;;;;1999.90;999.90;;;18.50;99.90;;;;;;5009286;28;20106;-85
2022/08/02 07:33:48;;;;;;;1999.90;999.90;;;18.70;99.90;;;;;;5010281;28;20531;-83
2022/08/02 07:36:14;;;;;;;1999.90;999.90;;;18.60;99.90;;;;;;5027443;28;20075;-84
2022/08/02 07:38:40;;;;;;;1999.90;999.90;;;18.70;99.90;;;;;;5008993;28;20033;-84
2022/08/02 07:41:05;;;;;;;1999.90;999.90;;;18.70;99.90;;;;;;5010368;28;20582;-83
2022/08/02 07:43:31;;;;;;;1999.90;999.90;;;18.90;99.90;;;;;;5028146;28;20528;-87
2022/08/02 07:45:57;;;;;;;1999.90;999.90;;;19.20;99.90;;;;;;5027740;28;20501;-84
2022/08/02 07:48:23;;;;;;;1999.90;999.90;;;19.20;99.90;;;;;;5011670;28;20065;-83
2022/08/02 07:50:50;;;;;;;1999.90;999.90;;;19.20;99.90;;;;;;5012376;28;20401;-87
2022/08/02 07:53:16;;;;;;;1999.90;999.90;;;19.10;99.90;;;;;;5026270;28;20052;-84
2022/08/02 07:55:42;;;;;;;1999.90;999.90;;;19.30;99.90;;;;;;5007689;28;20473;-88
2022/08/02 07:58:09;;;;;;;1999.90;999.90;;;19.20;99.90;;;;;;5026045;28;20136;-86
2022/08/02 08:00:35;;;;;;;1999.90;999.90;;;19.50;99.90;;;;;;5007431;28;20034;-86
2022/08/02 08:03:01;;;;;;;1999.90;999.90;;;19.40;99.90;;;;;;5007333;28;20058;-86
2022/08/02 08:05:27;;;;;;;1999.90;999.90;;;19.30;99.90;;;;;;5025186;28;20028;-86
2022/08/02 08:07:52;;;;;;;1999.90;999.90;;;19.50;99.90;;;;;;5007275;28;20043;-86
2022/08/02 08:10:18;;;;;;;1999.90;999.90;;;19.50;99.90;;;;;;5025154;28;20045;-85
2022/08/02 08:12:44;;;;;;;1999.90;999.90;;;19.90;99.90;;;;;;5025333;28;20460;-85
2022/08/02 08:15:09;;;;;;;1999.90;999.90;;;20.00;99.90;;;;;;4991377;28;20159;-86
2022/08/02 08:17:36;;;;;;;1999.90;999.90;;;20.20;99.90;;;;;;5024646;28;20021;-84
2022/08/02 08:20:03;;;;;;;1999.90;999.90;;;20.50;99.90;;;;;;5024930;28;20037;-85
2022/08/02 08:22:29;;;;;;;1999.90;999.90;;;20.50;99.90;;;;;;5024911;28;20102;-85
2022/08/02 08:24:54;;;;;;;1999.90;999.90;;;20.60;99.90;;;;;;5024627;28;20038;-87
2022/08/02 08:27:21;;;;;;;1999.90;999.90;;;20.90;99.90;;;;;;5024741;28;20468;-86
2022/08/02 08:29:48;;;;;;;1999.90;999.90;;;21.20;99.90;;;;;;5024223;28;20539;-90
2022/08/02 08:32:14;;;;;;;1999.90;999.90;;;21.40;99.90;;;;;;5025490;28;20037;-90
2022/08/02 08:34:40;;;;;;;1999.90;999.90;;;21.90;99.90;;;;;;5008346;28;20087;-86
2022/08/02 08:37:06;;;;;;;1999.90;999.90;;;22.20;99.90;;;;;;5007901;28;20042;-86
2022/08/02 08:39:31;;;;;;;1999.90;999.90;;;21.60;99.90;;;;;;5024734;28;20040;-88
2022/08/02 08:41:57;;;;;;;1999.90;999.90;;;21.70;99.90;;;;;;5023737;28;20095;-88
2022/08/02 08:44:23;;;;;;;1999.90;999.90;;;21.90;99.90;;;;;;5026032;28;20477;-83
2022/08/02 08:46:49;;;;;;;1999.90;999.90;;;22.10;99.90;;;;;;5008532;28;21423;-86
2022/08/02 08:49:30;;;;;;;1999.90;999.90;;;22.20;99.90;;;;;;5025095;28;20056;-84
2022/08/02 08:51:56;;;;;;;1999.90;999.90;;;22.10;99.90;;;;;;5024679;28;20504;-86
2022/08/02 08:54:26;;;;;;;1999.90;999.90;;;22.10;96.00;;;;;;5025423;28;20108;-88
2022/08/02 08:56:54;;;;;;;1999.90;999.90;;;22.10;95.00;;;;;;5026398;28;20500;-84
2022/08/02 08:59:19;;;;;;;1999.90;999.90;;;22.40;91.80;;;;;;5025739;28;21362;-88
2022/08/02 09:01:46;;;;;;;1999.90;999.90;;;22.30;91.20;;;;;;5024799;28;20104;-88
2022/08/02 09:04:11;;;;;;;1999.90;999.90;;;22.70;90.00;;;;;;5024111;28;20864;-88
2022/08/02 09:06:40;;;;;;;1999.90;744.25;;;22.60;94.80;;;;;;5024627;28;20041;-87
2022/08/02 09:09:06;;;;;;;1999.90;823.13;;;22.90;87.10;;;;;;5025612;28;20108;-87
2022/08/02 09:11:31;;;;;;;1969.82;859.83;;;23.00;85.20;;;;;;5024077;28;20049;-87
2022/08/02 09:14:01;;;;;;;1999.90;999.90;;;23.10;86.50;;;;;;5006931;28;20034;-91
2022/08/02 09:16:38;;;;;;;1999.90;999.90;;;23.00;87.60;;;;;;5008109;28;20029;-89
2022/08/02 09:19:22;;;;;;;1999.90;999.90;;;23.20;91.40;;;;;;5024317;28;20028;-85
2022/08/02 09:21:50;;;;;;;1999.90;780.25;;;23.30;91.40;;;;;;5025344;28;20493;-85
2022/08/02 09:24:21;;;;;;;1999.90;901.20;;;23.40;86.00;;;;;;5007490;28;20178;-85
2022/08/02 09:26:48;;;;;;;1999.90;879.25;;;23.50;82.40;;;;;;5024300;28;20037;-86
2022/08/02 09:29:15;;;;;;;1999.90;999.90;;;23.90;84.30;;;;;;5022826;28;20031;-87
2022/08/02 09:31:42;;;;;;;1999.90;690.55;;;23.70;82.90;;;;;;5025640;28;20038;-86
2022/08/02 09:34:08;;;;;;;1999.90;999.90;;;23.60;77.30;;;;;;5007057;28;20088;-85
2022/08/02 09:36:43;;;;;;;1999.90;662.08;;;23.80;84.40;;;;;;5007898;28;21488;-84
2022/08/02 09:39:11;;;;;;;1999.90;736.03;;;23.90;73.00;;;;;;5007744;28;20153;-84
2022/08/02 09:41:42;;;;;;;1999.90;565.47;;;23.90;75.30;;;;;;5022363;28;20037;-87
2022/08/02 09:44:10;;;;;;;1999.90;613.42;;;23.90;74.60;;;;;;5024430;28;20041;-86
2022/08/02 09:46:38;;;;;;;1999.90;663.10;;;24.40;74.80;;;;;;5025603;28;20175;-87
2022/08/02 09:49:08;;;;;;;1999.90;640.33;;;24.60;77.20;;;;;;5024526;28;20056;-87
2022/08/02 09:51:38;;;;;;;1999.90;950.90;;;24.30;71.10;;;;;;5022805;28;20072;-92
2022/08/02 09:54:08;;;;;;;1999.90;552.85;;;24.60;83.30;;;;;;5022502;28;20037;-85
2022/08/02 09:56:48;;;;;;;1999.90;814.78;;;24.40;72.30;;;;;;5024221;28;20026;-85
2022/08/02 09:59:15;;;;;;;;;;;24.30;70.00;;;;;;5022902;28;20025;-88
2022/08/02 10:01:42;;;;;;;1999.90;543.13;;;24.80;70.90;;;;;;5023457;28;20009;-84
2022/08/02 10:04:10;;;;;;;1999.90;790.72;;;25.30;77.00;;;;;;5023391;28;20037;-85
2022/08/02 10:06:37;;;;;;;1999.90;753.72;;;25.20;76.20;;;;;;5007569;28;20033;-83
2022/08/02 10:09:04;;;;;;;1999.90;544.15;;;25.30;68.80;;;;;;5006218;28;20041;-85
2022/08/02 10:11:30;;;;;;;1999.90;688.47;;;25.30;65.00;;;;;;5024539;28;20056;-85
2022/08/02 10:13:56;;;;;;;1999.90;816.58;;;25.60;70.90;;;;;;5006877;28;20037;-85
2022/08/02 10:16:23;;;;;;;1999.90;732.50;;;25.70;70.40;;;;;;5023030;28;20030;-85
2022/08/02 10:18:50;;;;;;;1999.90;910.53;;;25.80;64.10;;;;;;5022129;28;20549;-84
2022/08/02 10:21:35;;;;;;;1999.90;815.13;;;25.80;60.90;;;;;;5007879;28;20120;-91
2022/08/02 10:24:16;;;;;;;1999.90;965.63;;;26.10;62.20;;;;;;5022593;28;20036;-85
2022/08/02 10:26:44;;;;;;;1999.90;708.05;;;25.60;60.80;;;;;;5006746;28;20038;-86
2022/08/02 10:29:15;;;;;;;1999.90;734.33;;;25.30;69.70;;;;;;5006171;28;20090;-86
2022/08/02 10:31:43;;;;;;;1999.90;882.17;;;24.60;70.20;;;;;;5021875;28;20127;-85
2022/08/02 10:34:16;;;;;;;1589.68;890.33;;;24.50;66.80;;;;;;5023284;28;20512;-85
2022/08/02 10:36:43;;;;;;;1999.90;727.35;;;24.70;64.10;;;;;;5004795;28;20497;-87
2022/08/02 10:39:10;;;;;;;1999.90;748.95;;;24.90;71.60;;;;;;5025114;28;20471;-85
2022/08/02 10:41:51;;;;;;;1999.90;492.65;;;25.20;63.80;;;;;;5010160;28;20038;-84
2022/08/02 10:44:26;;;;;;;1999.90;917.15;;;25.40;72.30;;;;;;5026777;28;20585;-83
2022/08/02 10:47:13;;;;;;;1999.90;999.90;;;25.90;61.60;;;;;;5027768;28;20052;-84
2022/08/02 10:50:00;;;;;;;1999.90;952.38;;;26.40;56.20;;;;;;5016982;28;20041;-82
2022/08/02 10:52:30;;;;;;;1999.90;633.35;;;26.80;56.80;;;;;;5024898;28;20095;-83
2022/08/02 10:55:01;;;;;;;1999.90;869.70;;;27.10;54.50;;;;;;5027224;28;20022;-83
2022/08/02 10:57:32;;;;;;;1999.90;919.08;;;27.30;60.00;;;;;;5025938;28;20057;-82
2022/08/02 11:00:11;;;;;;;1999.90;934.88;;;27.30;55.30;;;;;;5024898;28;20029;-86
2022/08/02 11:02:46;;;;;;;1999.90;886.75;;;27.20;54.70;;;;;;5010691;28;20053;-85
2022/08/02 11:05:15;;;;;;;1807.00;995.78;;;27.50;55.90;;;;;;5016684;28;20037;-83
2022/08/02 11:07:46;;;;;;;1999.90;999.90;;;27.30;53.80;;;;;;5016388;28;20034;-86
2022/08/02 11:10:27;;;;;;;1021.05;921.75;;;28.10;54.40;;;;;;5017274;28;20026;-85
2022/08/02 11:13:09;;;;;;;916.63;834.20;;;28.80;47.00;;;;;;5014028;28;20037;-87
2022/08/02 11:15:59;;;;;;;628.95;586.65;;;28.60;42.70;;;;;;5017426;28;20567;-89
2022/08/02 11:18:45;;;;;;;892.72;813.50;;;28.40;45.10;;;;;;5013441;28;20135;-85
2022/08/02 11:21:24;;;;;;;1561.25;999.90;;;28.70;43.50;;;;;;5015825;28;20123;-86
2022/08/02 11:23:51;;;;;;;1438.00;999.90;;;29.20;48.70;;;;;;5011804;28;20037;-84
2022/08/02 11:26:32;;;;;;;756.33;705.92;;;30.00;45.20;;;;;;5013646;28;20163;-85
2022/08/02 11:28:59;;;;;;;889.08;821.00;;;29.30;42.00;;;;;;5015540;28;20486;-90
2022/08/02 11:31:26;;;;;;;956.03;858.75;;;30.10;41.70;;;;;;4991078;28;20103;-86
2022/08/02 11:33:52;;;;;;;1787.72;999.90;;;29.60;43.90;;;;;;5006656;28;20038;-86
2022/08/02 11:36:18;;;;;;;1016.10;923.08;;;29.40;46.60;;;;;;5005523;28;20026;-89
2022/08/02 11:38:44;;;;;;;933.38;854.80;;;29.40;43.90;;;;;;5003673;28;20040;-90
2022/08/02 11:41:19;;;;;;;1275.75;992.08;;;29.30;41.70;;;;;;4989073;28;20038;-89
2022/08/02 11:43:45;;;;;;;1838.32;999.90;;;28.80;46.50;;;;;;5006934;28;20037;-83
2022/08/02 11:46:14;;;;;;;1999.90;999.90;;;28.80;47.90;;;;;;5005054;28;20034;-85
2022/08/02 11:48:41;;;;;;;1955.28;999.90;;;29.20;47.00;;;;;;5006629;28;20502;-82
2022/08/02 11:51:16;;;;;;;889.05;823.97;;;29.70;48.20;;;;;;5004512;28;20069;-86
2022/08/02 11:53:50;;;;;;;1020.88;916.60;;;30.20;38.90;;;;;;5004604;28;20028;-85
2022/08/02 11:56:24;;;;;;;1164.97;994.60;;;30.20;41.20;;;;;;5004910;28;20026;-87
2022/08/02 11:59:10;;;;;;;886.70;817.03;;;30.10;41.70;;;;;;5003390;28;20561;-87
2022/08/02 12:01:38;;;;;;;945.17;865.05;;;30.30;38.50;;;;;;5005560;28;20093;-85
2022/08/02 12:04:05;;;;;;;807.05;748.50;;;30.90;35.00;;;;;;5002972;28;20761;-87
2022/08/02 12:06:32;;;;;;;1043.78;936.10;;;31.60;36.50;;;;;;5005401;28;20109;-85
2022/08/02 12:09:08;;;;;;;988.50;897.97;;;31.70;37.50;;;;;;4988072;28;20112;-87